createdAt,value
2022-09-13T00:01:58.827Z,1.20
2022-09-13T00:04:26.805Z,1.13
2022-09-13T00:06:54.532Z,1.10
2022-09-13T00:09:22.227Z,1.10
2022-09-13T00:11:49.945Z,1.13
2022-09-13T00:14:19.006Z,1.00
2022-09-13T00:16:46.779Z,1.10
2022-09-13T00:19:14.555Z,1.20
2022-09-13T00:21:42.326Z,1.50
2022-09-13T00:24:10.086Z,1.17
2022-09-13T00:26:37.867Z,1.05
2022-09-13T00:29:05.609Z,1.40
2022-09-13T00:31:34.646Z,1.40
2022-09-13T00:34:02.539Z,1.50
2022-09-13T00:36:30.581Z,1.20
2022-09-13T00:38:58.333Z,1.27
2022-09-13T00:41:26.070Z,1.10
2022-09-13T00:43:55.233Z,1.17
2022-09-13T00:46:35.917Z,1.40
2022-09-13T00:49:14.113Z,1.30
2022-09-13T00:51:46.559Z,1.42
2022-09-13T00:54:17.087Z,1.40
2022-09-13T00:56:47.212Z,1.48
2022-09-13T00:59:19.424Z,1.10
2022-09-13T01:01:52.141Z,1.57
2022-09-13T01:04:23.734Z,1.20
2022-09-13T01:06:55.691Z,1.60
2022-09-13T01:09:24.124Z,1.50
2022-09-13T01:11:59.906Z,1.40
2022-09-13T01:14:28.871Z,1.40
2022-09-13T01:16:58.021Z,1.40
2022-09-13T01:19:25.717Z,1.40
2022-09-13T01:22:32.023Z,1.50
2022-09-13T01:25:39.822Z,1.43
2022-09-13T01:28:19.216Z,1.70
2022-09-13T01:30:55.737Z,1.50
2022-09-13T01:33:41.265Z,1.80
2022-09-13T01:36:44.723Z,1.33
2022-09-13T01:39:16.139Z,1.63
2022-09-13T01:42:03.665Z,1.43
2022-09-13T01:44:50.868Z,1.30
2022-09-13T01:47:28.163Z,1.40
2022-09-13T01:50:08.601Z,1.70
2022-09-13T01:52:43.853Z,1.67
2022-09-13T01:55:19.054Z,1.40
2022-09-13T01:57:54.014Z,1.80
2022-09-13T02:00:21.789Z,1.60
2022-09-13T02:02:53.580Z,1.70
2022-09-13T02:05:26.990Z,1.50
2022-09-13T02:08:00.242Z,1.63
2022-09-13T02:10:30.557Z,1.97
2022-09-13T02:13:00.115Z,1.93
2022-09-13T02:15:32.978Z,2.10
2022-09-13T02:18:08.566Z,2.13
2022-09-13T02:20:39.522Z,1.67
2022-09-13T02:23:13.216Z,1.50
2022-09-13T02:25:42.238Z,1.80
2022-09-13T02:28:14.045Z,2.43
2022-09-13T02:30:47.754Z,2.00
2022-09-13T02:33:20.741Z,1.90
2022-09-13T02:35:53.749Z,1.90
2022-09-13T02:38:27.199Z,1.83
2022-09-13T02:40:59.782Z,2.00
2022-09-13T02:43:33.389Z,1.60
2022-09-13T02:46:13.598Z,2.05
2022-09-13T02:48:53.778Z,2.07
2022-09-13T02:51:30.475Z,1.80
2022-09-13T02:54:10.762Z,2.43
2022-09-13T02:56:49.395Z,1.90
2022-09-13T02:59:20.029Z,2.30
2022-09-13T03:01:51.599Z,2.00
2022-09-13T03:04:21.525Z,2.27
2022-09-13T03:06:50.870Z,2.17
2022-09-13T03:09:20.206Z,2.57
2022-09-13T03:12:02.322Z,2.37
2022-09-13T03:14:42.029Z,2.00
2022-09-13T03:17:20.990Z,2.40
2022-09-13T03:20:07.604Z,3.23
2022-09-13T03:22:55.567Z,2.77
2022-09-13T03:25:35.478Z,2.63
2022-09-13T03:28:13.546Z,2.67
2022-09-13T03:30:45.729Z,2.50
2022-09-13T03:33:18.775Z,2.60
2022-09-13T03:35:54.072Z,2.60
2022-09-13T03:38:26.626Z,2.67
2022-09-13T03:40:59.678Z,3.27
2022-09-13T03:43:35.648Z,2.40
2022-09-13T03:46:06.846Z,2.80
2022-09-13T03:48:37.905Z,2.90
2022-09-13T03:51:08.569Z,2.75
2022-09-13T03:53:40.177Z,2.47
2022-09-13T03:56:14.142Z,2.40
2022-09-13T03:58:42.132Z,2.83
2022-09-13T04:01:10.595Z,2.13
2022-09-13T04:03:38.604Z,1.83
2022-09-13T04:06:08.776Z,2.80
2022-09-13T04:08:36.555Z,2.40
2022-09-13T04:11:04.386Z,2.87
2022-09-13T04:13:32.414Z,2.13
2022-09-13T04:16:02.867Z,2.70
2022-09-13T04:18:31.129Z,2.80
2022-09-13T04:21:00.748Z,2.00
2022-09-13T04:23:31.265Z,2.30
2022-09-13T04:26:03.130Z,2.73
2022-09-13T04:28:30.888Z,2.73
2022-09-13T04:30:58.737Z,2.37
2022-09-13T04:33:26.457Z,2.67
2022-09-13T04:36:00.166Z,2.90
2022-09-13T04:38:31.908Z,2.67
2022-09-13T04:40:59.815Z,2.87
2022-09-13T04:43:27.626Z,2.90
2022-09-13T04:45:55.382Z,3.00
2022-09-13T04:48:23.162Z,2.90
2022-09-13T04:50:50.941Z,2.67
2022-09-13T04:53:18.694Z,3.00
2022-09-13T04:55:47.733Z,2.87
2022-09-13T04:58:15.479Z,3.00
2022-09-13T05:00:43.407Z,3.73
2022-09-13T05:03:11.230Z,2.97
2022-09-13T05:05:38.897Z,3.77
2022-09-13T05:08:06.617Z,3.40
2022-09-13T05:10:34.294Z,3.87
2022-09-13T05:13:03.534Z,3.43
2022-09-13T05:15:31.513Z,3.23
2022-09-13T05:17:59.221Z,3.73
2022-09-13T05:20:26.983Z,3.90
2022-09-13T05:22:56.965Z,4.00
2022-09-13T05:25:26.174Z,3.47
2022-09-13T05:27:53.999Z,3.53
2022-09-13T05:30:23.095Z,4.17
2022-09-13T05:32:50.863Z,3.50
2022-09-13T05:35:18.587Z,3.63
2022-09-13T05:37:46.318Z,3.60
2022-09-13T05:40:14.085Z,3.83
2022-09-13T05:42:42.011Z,4.13
2022-09-13T05:45:10.488Z,4.30
2022-09-13T05:47:39.713Z,4.47
2022-09-13T05:50:11.805Z,4.27
2022-09-13T05:52:43.745Z,4.17
2022-09-13T05:55:11.565Z,4.67
2022-09-13T05:57:39.426Z,3.80
2022-09-13T06:00:08.330Z,4.20
2022-09-13T06:02:36.145Z,3.30
2022-09-13T06:05:06.601Z,4.50
2022-09-13T06:07:35.206Z,4.10
2022-09-13T06:10:03.343Z,3.97
2022-09-13T06:12:31.098Z,3.25
2022-09-13T06:14:58.836Z,4.07
2022-09-13T06:17:26.675Z,4.13
2022-09-13T06:19:54.400Z,3.80
2022-09-13T06:22:23.647Z,3.43
2022-09-13T06:24:52.000Z,3.80
2022-09-13T06:27:19.824Z,4.07
2022-09-13T06:29:47.542Z,3.17
2022-09-13T06:32:15.613Z,3.07
2022-09-13T06:34:43.330Z,3.77
2022-09-13T06:37:11.066Z,3.53
2022-09-13T06:39:40.195Z,3.43
2022-09-13T06:42:08.332Z,3.27
2022-09-13T06:44:36.147Z,3.40
2022-09-13T06:47:03.885Z,3.88
2022-09-13T06:49:32.407Z,3.50
2022-09-13T06:52:00.218Z,3.77
2022-09-13T06:54:27.941Z,4.30
2022-09-13T06:56:57.018Z,3.93
2022-09-13T06:59:24.802Z,3.38
2022-09-13T07:01:52.556Z,3.33
2022-09-13T07:04:20.483Z,3.05
2022-09-13T07:06:49.839Z,3.45
2022-09-13T07:09:19.674Z,3.28
2022-09-13T07:11:48.762Z,3.80
2022-09-13T07:14:19.835Z,3.40
2022-09-13T07:16:48.066Z,3.45
2022-09-13T07:19:17.706Z,3.38
2022-09-13T07:21:45.698Z,3.10
2022-09-13T07:24:13.650Z,3.80
2022-09-13T07:26:41.335Z,3.40
2022-09-13T07:29:13.565Z,3.17
2022-09-13T07:31:44.085Z,3.47
2022-09-13T07:34:14.967Z,3.22
2022-09-13T07:36:43.036Z,3.95
2022-09-13T07:39:14.893Z,2.95
2022-09-13T07:41:44.603Z,3.50
2022-09-13T07:44:12.621Z,3.55
2022-09-13T07:46:43.419Z,3.13
2022-09-13T07:49:12.834Z,3.35
2022-09-13T07:51:42.563Z,2.75
2022-09-13T07:54:13.316Z,2.67
2022-09-13T07:56:42.233Z,2.58
2022-09-13T07:59:13.889Z,2.33
2022-09-13T08:01:44.332Z,2.92
2022-09-13T08:04:14.479Z,2.55
2022-09-13T08:06:44.467Z,2.53
2022-09-13T08:09:12.846Z,3.17
2022-09-13T08:11:42.444Z,2.30
2022-09-13T08:14:12.312Z,2.28
2022-09-13T08:16:42.081Z,2.15
2022-09-13T08:19:13.354Z,2.20
2022-09-13T08:21:42.704Z,1.73
2022-09-13T08:24:15.883Z,1.65
2022-09-13T08:26:43.771Z,2.38
2022-09-13T08:29:13.280Z,1.48
2022-09-13T08:31:42.715Z,1.60
2022-09-13T08:34:12.588Z,1.77
2022-09-13T08:36:41.050Z,1.58
2022-09-13T08:39:10.141Z,1.40
2022-09-13T08:42:02.040Z,1.17
2022-09-13T08:44:31.673Z,1.38
2022-09-13T08:47:12.721Z,1.38
2022-09-13T08:49:44.232Z,1.27
2022-09-13T08:52:30.541Z,1.08
2022-09-13T08:54:58.903Z,1.50
2022-09-13T08:57:33.026Z,1.35
2022-09-13T09:00:07.307Z,0.70
2022-09-13T09:02:52.541Z,0.80
2022-09-13T09:05:22.921Z,0.68
2022-09-13T09:07:55.010Z,0.82
2022-09-13T09:10:25.248Z,0.70
2022-09-13T09:12:56.954Z,0.68
2022-09-13T09:15:28.297Z,0.60
2022-09-13T09:18:01.213Z,0.30
2022-09-13T09:20:33.290Z,0.65
2022-09-13T09:23:05.366Z,0.52
2022-09-13T09:25:35.622Z,0.43
2022-09-13T09:28:10.933Z,0.30
2022-09-13T09:30:45.589Z,0.45
2022-09-13T09:33:37.402Z,0.52
2022-09-13T09:36:11.911Z,0.30
2022-09-13T09:38:42.709Z,0.60
2022-09-13T09:41:22.678Z,0.35
2022-09-13T09:43:56.561Z,0.38
2022-09-13T09:46:29.785Z,0.45
2022-09-13T09:49:27.541Z,0.32
2022-09-13T09:51:57.260Z,0.40
2022-09-13T09:54:27.905Z,0.32
2022-09-13T09:56:56.231Z,0.47
2022-09-13T09:59:28.600Z,0.50
2022-09-13T10:01:58.055Z,0.52
2022-09-13T10:04:29.070Z,0.30
2022-09-13T10:07:17.785Z,0.20
2022-09-13T10:09:58.892Z,0.50
2022-09-13T10:12:33.962Z,0.60
2022-09-13T10:15:08.670Z,0.15
2022-09-13T10:17:36.930Z,0.30
2022-09-13T10:20:23.293Z,0.55
2022-09-13T10:23:19.314Z,0.20
2022-09-13T10:25:57.828Z,0.20
2022-09-13T10:28:26.769Z,0.40
2022-09-13T10:30:57.401Z,0.17
2022-09-13T10:33:31.412Z,0.20
2022-09-13T10:36:02.654Z,0.15
2022-09-13T10:38:33.571Z,0.25
2022-09-13T10:41:04.503Z,0.20
2022-09-13T10:43:33.766Z,0.30
2022-09-13T10:46:05.773Z,0.40
2022-09-13T10:48:47.190Z,0.35
2022-09-13T10:51:34.269Z,0.30
2022-09-13T10:54:20.256Z,0.30
2022-09-13T10:56:49.503Z,0.30
2022-09-13T10:59:21.855Z,0.47
2022-09-13T11:02:05.959Z,0.30
2022-09-13T11:05:01.172Z,0.20
2022-09-13T11:07:50.979Z,0.40
2022-09-13T11:10:25.745Z,0.30
2022-09-13T11:13:03.290Z,0.17
2022-09-13T11:15:44.611Z,0.30
2022-09-13T11:18:32.274Z,0.20
2022-09-13T11:21:10.449Z,0.28
2022-09-13T11:24:08.661Z,0.30
2022-09-13T11:26:54.369Z,0.20
2022-09-13T11:29:34.242Z,0.10
2022-09-13T11:32:16.510Z,0.22
2022-09-13T11:34:51.612Z,0.20
2022-09-13T11:37:34.038Z,0.30
2022-09-13T11:40:21.384Z,0.38
2022-09-13T11:42:57.990Z,0.10
2022-09-13T11:45:28.257Z,0.43
2022-09-13T11:48:19.290Z,0.60
2022-09-13T11:50:55.479Z,0.50
2022-09-13T11:53:50.180Z,0.32
2022-09-13T11:56:25.263Z,0.20
2022-09-13T11:58:55.790Z,0.60
2022-09-13T12:01:28.942Z,0.45
2022-09-13T12:04:01.930Z,0.20
2022-09-13T12:06:34.824Z,0.40
2022-09-13T12:09:06.747Z,0.38
2022-09-13T12:11:39.818Z,0.20
2022-09-13T12:14:13.215Z,0.30
2022-09-13T12:16:44.550Z,0.17
2022-09-13T12:19:18.238Z,0.20
2022-09-13T12:21:50.490Z,0.40
2022-09-13T12:24:24.596Z,0.20
2022-09-13T12:26:59.765Z,0.20
2022-09-13T12:29:36.414Z,0.47
2022-09-13T12:32:06.329Z,0.35
2022-09-13T12:34:41.680Z,0.30
2022-09-13T12:37:34.233Z,0.30
2022-09-13T12:40:33.502Z,0.35
2022-09-13T12:43:33.068Z,0.10
2022-09-13T12:46:19.335Z,0.57
2022-09-13T12:49:11.515Z,0.35
2022-09-13T12:52:11.479Z,0.30
2022-09-13T12:55:35.567Z,0.45
2022-09-13T12:58:22.709Z,0.30
2022-09-13T13:01:10.418Z,0.30
2022-09-13T13:03:47.488Z,0.35
2022-09-13T13:06:27.369Z,0.22
2022-09-13T13:08:57.894Z,0.30
2022-09-13T13:11:28.278Z,0.43
2022-09-13T13:14:00.564Z,0.13
2022-09-13T13:16:31.693Z,0.35
2022-09-13T13:19:03.620Z,0.35
2022-09-13T13:21:34.864Z,0.22
2022-09-13T13:24:44.993Z,0.60
2022-09-13T13:27:39.644Z,0.47
2022-09-13T13:30:52.419Z,0.30
2022-09-13T13:33:23.129Z,0.20
2022-09-13T13:35:51.431Z,0.30
2022-09-13T13:38:38.655Z,0.30
2022-09-13T13:41:12.731Z,0.20
2022-09-13T13:43:40.993Z,0.17
2022-09-13T13:46:31.773Z,0.50
2022-09-13T13:49:33.051Z,0.40
2022-09-13T13:52:33.190Z,0.52
2022-09-13T13:55:04.222Z,0.45
2022-09-13T13:57:35.560Z,0.30
2022-09-13T14:00:12.215Z,0.10
2022-09-13T14:02:47.486Z,0.32
2022-09-13T14:05:23.366Z,0.40
2022-09-13T14:08:27.336Z,0.25
2022-09-13T14:11:02.599Z,0.32
2022-09-13T14:13:44.154Z,0.47
2022-09-13T14:16:29.362Z,0.60
2022-09-13T14:19:18.483Z,0.50
2022-09-13T14:21:46.222Z,0.45
2022-09-13T14:24:19.846Z,0.35
2022-09-13T14:26:49.293Z,0.30
2022-09-13T14:29:19.114Z,0.20
2022-09-13T14:31:48.624Z,0.40
2022-09-13T14:34:24.373Z,0.30
2022-09-13T14:36:54.536Z,0.68
2022-09-13T14:39:23.148Z,0.68
2022-09-13T14:42:00.495Z,0.43
2022-09-13T14:44:30.175Z,0.40
2022-09-13T14:47:07.186Z,0.40
2022-09-13T14:49:39.470Z,0.30
2022-09-13T14:52:11.450Z,0.40
2022-09-13T14:54:43.878Z,0.73
2022-09-13T14:57:23.935Z,0.28
2022-09-13T14:59:55.683Z,0.47
2022-09-13T15:02:26.775Z,0.05
2022-09-13T15:04:57.961Z,0.60
2022-09-13T15:07:31.129Z,0.30
2022-09-13T15:10:08.355Z,0.50
2022-09-13T15:12:37.144Z,0.47
2022-09-13T15:15:28.511Z,0.22
2022-09-13T15:17:57.764Z,0.35
2022-09-13T15:20:30.131Z,0.30
2022-09-13T15:22:58.709Z,0.15
2022-09-13T15:25:28.233Z,0.50
2022-09-13T15:27:57.598Z,0.60
2022-09-13T15:30:28.326Z,0.60
2022-09-13T15:33:07.801Z,0.20
2022-09-13T15:35:39.893Z,1.30
2022-09-13T15:38:20.450Z,0.32
2022-09-13T15:40:58.663Z,0.45
2022-09-13T15:43:26.637Z,0.35
2022-09-13T15:45:54.321Z,0.40
2022-09-13T15:48:28.177Z,0.52
2022-09-13T15:51:08.619Z,0.60
2022-09-13T15:53:38.718Z,0.40
2022-09-13T15:56:07.909Z,0.40
2022-09-13T15:58:37.182Z,0.50
2022-09-13T16:01:05.994Z,0.30
2022-09-13T16:03:33.768Z,0.55
2022-09-13T16:06:01.587Z,0.50
2022-09-13T16:08:30.904Z,0.60
2022-09-13T16:10:58.875Z,0.32
2022-09-13T16:13:26.586Z,0.20
2022-09-13T16:15:57.677Z,0.52
2022-09-13T16:18:25.946Z,0.50
2022-09-13T16:20:53.850Z,0.30
2022-09-13T16:23:21.569Z,0.45
2022-09-13T16:25:52.262Z,0.40
2022-09-13T16:28:21.206Z,0.30
2022-09-13T16:30:49.423Z,0.35
2022-09-13T16:33:17.164Z,0.30
2022-09-13T16:35:44.984Z,0.75
2022-09-13T16:38:12.779Z,0.20
2022-09-13T16:40:41.025Z,0.60
2022-09-13T16:43:10.359Z,0.20
2022-09-13T16:45:39.463Z,0.35
2022-09-13T16:48:07.712Z,0.40
2022-09-13T16:50:36.261Z,0.50
2022-09-13T16:53:04.104Z,0.30
2022-09-13T16:55:31.870Z,0.73
2022-09-13T16:57:59.595Z,0.47
2022-09-13T17:00:30.058Z,0.30
2022-09-13T17:03:03.171Z,0.38
2022-09-13T17:05:31.050Z,0.43
2022-09-13T17:07:58.959Z,0.50
2022-09-13T17:10:26.932Z,0.22
2022-09-13T17:12:54.762Z,0.50
2022-09-13T17:15:22.623Z,0.40
2022-09-13T17:17:51.683Z,0.15
2022-09-13T17:20:19.603Z,0.45
2022-09-13T17:22:47.373Z,0.20
2022-09-13T17:25:16.084Z,0.35
2022-09-13T17:27:43.754Z,0.40
2022-09-13T17:30:12.883Z,0.47
2022-09-13T17:32:40.825Z,0.40
2022-09-13T17:35:11.966Z,0.30
2022-09-13T17:37:39.778Z,0.43
2022-09-13T17:40:08.245Z,0.40
2022-09-13T17:42:36.093Z,0.30
2022-09-13T17:45:04.098Z,0.55
2022-09-13T17:47:31.892Z,0.40
2022-09-13T17:49:59.575Z,0.73
2022-09-13T17:52:32.747Z,0.30
2022-09-13T17:55:02.454Z,0.30
2022-09-13T17:57:30.206Z,0.40
2022-09-13T17:59:57.936Z,0.13
2022-09-13T18:02:27.357Z,0.77
2022-09-13T18:04:55.255Z,0.60
2022-09-13T18:07:22.945Z,0.43
2022-09-13T18:09:52.567Z,0.23
2022-09-13T18:12:20.588Z,0.30
2022-09-13T18:14:48.315Z,0.50
2022-09-13T18:17:16.260Z,0.63
2022-09-13T18:19:47.028Z,0.47
2022-09-13T18:22:15.967Z,0.30
2022-09-13T18:24:43.692Z,0.60
2022-09-13T18:27:12.830Z,0.30
2022-09-13T18:29:40.676Z,0.50
2022-09-13T18:32:08.400Z,0.30
2022-09-13T18:34:36.091Z,0.50
2022-09-13T18:37:03.782Z,0.32
2022-09-13T18:39:31.537Z,0.55
2022-09-13T18:42:01.003Z,0.50
2022-09-13T18:44:30.684Z,0.23
2022-09-13T18:47:00.517Z,0.80
2022-09-13T18:49:28.348Z,0.30
2022-09-13T18:51:56.096Z,0.40
2022-09-13T18:54:23.829Z,0.50
2022-09-13T18:56:51.629Z,0.30
2022-09-13T18:59:19.357Z,0.30
2022-09-13T19:01:48.914Z,0.20
2022-09-13T19:04:18.406Z,0.53
2022-09-13T19:06:47.677Z,0.30
2022-09-13T19:09:16.021Z,0.50
2022-09-13T19:11:47.869Z,0.30
2022-09-13T19:14:18.173Z,0.40
2022-09-13T19:16:46.124Z,0.50
2022-09-13T19:19:15.619Z,0.40
2022-09-13T19:21:43.645Z,0.30
2022-09-13T19:24:17.619Z,0.23
2022-09-13T19:26:47.429Z,0.57
2022-09-13T19:29:17.677Z,0.20
2022-09-13T19:31:48.004Z,0.60
2022-09-13T19:34:18.294Z,0.73
2022-09-13T19:36:46.388Z,0.17
2022-09-13T19:39:14.243Z,0.27
2022-09-13T19:41:42.574Z,0.50
2022-09-13T19:44:13.788Z,0.37
2022-09-13T19:46:42.529Z,0.37
2022-09-13T19:49:13.977Z,0.57
2022-09-13T19:51:48.890Z,0.40
2022-09-13T19:54:20.476Z,0.40
2022-09-13T19:56:48.264Z,0.40
2022-09-13T19:59:19.870Z,0.33
2022-09-13T20:01:48.671Z,0.40
2022-09-13T20:04:18.272Z,0.20
2022-09-13T20:06:49.135Z,0.67
2022-09-13T20:09:18.973Z,0.27
2022-09-13T20:11:48.348Z,0.30
2022-09-13T20:14:18.247Z,0.40
2022-09-13T20:16:47.380Z,0.30
2022-09-13T20:19:39.745Z,0.77
2022-09-13T20:22:08.803Z,0.47
2022-09-13T20:24:36.686Z,0.30
2022-09-13T20:27:04.881Z,0.28
2022-09-13T20:29:32.724Z,0.30
2022-09-13T20:32:02.162Z,0.10
2022-09-13T20:34:29.963Z,0.20
2022-09-13T20:36:57.765Z,0.30
2022-09-13T20:39:27.183Z,0.20
2022-09-13T20:41:54.935Z,0.28
2022-09-13T20:44:22.701Z,0.20
2022-09-13T20:46:50.520Z,0.20
2022-09-13T20:49:18.195Z,0.50
2022-09-13T20:51:46.537Z,0.30
2022-09-13T20:54:14.324Z,0.30
2022-09-13T20:56:43.385Z,0.43
2022-09-13T20:59:11.281Z,0.20
2022-09-13T21:01:39.633Z,0.40
2022-09-13T21:04:07.506Z,0.80
2022-09-13T21:06:38.900Z,0.30
2022-09-13T21:09:06.305Z,0.23
2022-09-13T21:11:36.227Z,0.20
2022-09-13T21:14:07.414Z,0.45
2022-09-13T21:16:39.731Z,0.70
2022-09-13T21:19:08.321Z,0.33
2022-09-13T21:21:38.289Z,0.30
2022-09-13T21:24:09.525Z,0.40
2022-09-13T21:26:39.646Z,0.40
2022-09-13T21:29:09.744Z,0.20
2022-09-13T21:31:37.770Z,0.30
2022-09-13T21:34:08.466Z,0.50
2022-09-13T21:36:37.255Z,0.40
2022-09-13T21:39:05.790Z,0.47
2022-09-13T21:41:34.094Z,0.40
2022-09-13T21:44:02.384Z,0.40
2022-09-13T21:46:34.356Z,0.33
2022-09-13T21:49:03.715Z,0.43
2022-09-13T21:51:33.953Z,0.43
2022-09-13T21:54:05.506Z,0.50
2022-09-13T21:56:34.902Z,0.57
2022-09-13T21:59:04.309Z,0.33
2022-09-13T22:01:35.970Z,0.67
2022-09-13T22:04:04.413Z,0.30
2022-09-13T22:06:34.609Z,0.30
2022-09-13T22:09:04.605Z,0.30
2022-09-13T22:11:34.218Z,0.47
2022-09-13T22:14:02.619Z,0.40
2022-09-13T22:16:33.543Z,0.30
2022-09-13T22:19:09.081Z,0.50
2022-09-13T22:21:39.234Z,0.57
2022-09-13T22:24:08.371Z,0.30
2022-09-13T22:26:38.406Z,0.40
2022-09-13T22:29:06.174Z,0.53
2022-09-13T22:31:37.607Z,0.30
2022-09-13T22:34:06.727Z,0.30
2022-09-13T22:36:34.573Z,0.50
2022-09-13T22:39:02.328Z,0.20
2022-09-13T22:41:31.934Z,0.37
2022-09-13T22:44:00.602Z,0.50
2022-09-13T22:46:32.610Z,0.23
2022-09-13T22:49:02.560Z,0.50
2022-09-13T22:51:30.410Z,0.23
2022-09-13T22:54:00.532Z,0.40
2022-09-13T22:56:33.285Z,0.37
2022-09-13T22:59:02.654Z,0.40
2022-09-13T23:01:31.753Z,0.40
2022-09-13T23:04:02.919Z,0.20
2022-09-13T23:06:31.383Z,0.70
2022-09-13T23:09:00.864Z,0.27
2022-09-13T23:11:30.317Z,0.40
2022-09-13T23:14:01.732Z,0.27
2022-09-13T23:16:31.556Z,0.30
2022-09-13T23:19:01.198Z,0.50
2022-09-13T23:21:30.943Z,0.47
2022-09-13T23:23:59.653Z,0.37
2022-09-13T23:26:28.393Z,0.40
2022-09-13T23:28:59.756Z,0.47
2022-09-13T23:31:29.674Z,0.43
2022-09-13T23:33:59.604Z,0.40
2022-09-13T23:36:30.393Z,0.47
2022-09-13T23:38:59.671Z,0.40
2022-09-13T23:41:27.649Z,0.40
2022-09-13T23:43:55.707Z,0.43
2022-09-13T23:46:23.652Z,0.57
2022-09-13T23:48:51.485Z,0.40
2022-09-13T23:51:20.674Z,0.50
2022-09-13T23:53:50.940Z,0.33
2022-09-13T23:56:19.127Z,0.33
2022-09-13T23:58:46.846Z,0.57
